sensor_id;sensor_type;location;lat;lon;timestamp;pressure;altitude;pressure_sealevel;temperature;humidity
54592;BME280;40488;48.558;18.150;2023-02-28T00:01:50;100674.22;;;-0.59;68.47
54592;BME280;40488;48.558;18.150;2023-02-28T00:04:19;100680.63;;;-0.64;68.47
54592;BME280;40488;48.558;18.150;2023-02-28T00:06:48;100670.69;;;-0.62;68.63
54592;BME280;40488;48.558;18.150;2023-02-28T00:09:16;100674.84;;;-0.63;68.59
54592;BME280;40488;48.558;18.150;2023-02-28T00:11:47;100674.47;;;-0.69;68.74
54592;BME280;40488;48.558;18.150;2023-02-28T00:14:16;100676.81;;;-0.72;68.81
54592;BME280;40488;48.558;18.150;2023-02-28T00:16:45;100682.34;;;-0.63;68.81
54592;BME280;40488;48.558;18.150;2023-02-28T00:19:14;100684.94;;;-0.61;68.71
54592;BME280;40488;48.558;18.150;2023-02-28T00:21:43;100686.31;;;-0.67;68.86
54592;BME280;40488;48.558;18.150;2023-02-28T00:24:12;100686.50;;;-0.63;68.89
54592;BME280;40488;48.558;18.150;2023-02-28T00:26:40;100680.81;;;-0.61;69.05
54592;BME280;40488;48.558;18.150;2023-02-28T00:29:11;100684.06;;;-0.62;68.87
54592;BME280;40488;48.558;18.150;2023-02-28T00:31:39;100682.50;;;-0.60;68.81
54592;BME280;40488;48.558;18.150;2023-02-28T00:34:11;100686.00;;;-0.58;68.58
54592;BME280;40488;48.558;18.150;2023-02-28T00:36:39;100690.81;;;-0.61;68.88
54592;BME280;40488;48.558;18.150;2023-02-28T00:39:12;100691.31;;;-0.67;68.71
54592;BME280;40488;48.558;18.150;2023-02-28T00:41:41;100692.13;;;-0.81;69.13
54592;BME280;40488;48.558;18.150;2023-02-28T00:44:12;100693.63;;;-0.97;69.36
54592;BME280;40488;48.558;18.150;2023-02-28T00:46:41;100691.31;;;-1.07;69.78
54592;BME280;40488;48.558;18.150;2023-02-28T00:49:09;100690.69;;;-1.18;69.90
54592;BME280;40488;48.558;18.150;2023-02-28T00:51:38;100692.13;;;-1.21;70.01
54592;BME280;40488;48.558;18.150;2023-02-28T00:54:08;100695.41;;;-1.22;70.29
54592;BME280;40488;48.558;18.150;2023-02-28T00:56:36;100695.22;;;-1.25;70.42
54592;BME280;40488;48.558;18.150;2023-02-28T00:59:05;100700.91;;;-1.28;70.85
54592;BME280;40488;48.558;18.150;2023-02-28T01:01:35;100701.94;;;-1.24;70.77
54592;BME280;40488;48.558;18.150;2023-02-28T01:04:04;100695.41;;;-1.22;70.99
54592;BME280;40488;48.558;18.150;2023-02-28T01:06:34;100690.09;;;-1.14;71.45
54592;BME280;40488;48.558;18.150;2023-02-28T01:09:05;100687.66;;;-1.12;71.50
54592;BME280;40488;48.558;18.150;2023-02-28T01:11:35;100689.63;;;-1.08;71.65
54592;BME280;40488;48.558;18.150;2023-02-28T01:14:04;100691.31;;;-1.07;71.38
54592;BME280;40488;48.558;18.150;2023-02-28T01:16:34;100693.28;;;-1.03;71.62
54592;BME280;40488;48.558;18.150;2023-02-28T01:19:03;100700.38;;;-0.96;71.51
54592;BME280;40488;48.558;18.150;2023-02-28T01:21:32;100703.25;;;-0.90;71.69
54592;BME280;40488;48.558;18.150;2023-02-28T01:24:02;100706.03;;;-0.86;71.79
54592;BME280;40488;48.558;18.150;2023-02-28T01:26:31;100702.16;;;-0.81;71.62
54592;BME280;40488;48.558;18.150;2023-02-28T01:29:00;100706.69;;;-0.75;71.64
54592;BME280;40488;48.558;18.150;2023-02-28T01:31:29;100701.94;;;-0.71;71.31
54592;BME280;40488;48.558;18.150;2023-02-28T01:34:00;100710.69;;;-0.64;71.31
54592;BME280;40488;48.558;18.150;2023-02-28T01:36:29;100708.38;;;-0.61;71.16
54592;BME280;40488;48.558;18.150;2023-02-28T01:38:57;100711.06;;;-0.58;71.13
54592;BME280;40488;48.558;18.150;2023-02-28T01:41:28;100711.22;;;-0.55;70.98
54592;BME280;40488;48.558;18.150;2023-02-28T01:44:03;100704.09;;;-0.49;70.90
54592;BME280;40488;48.558;18.150;2023-02-28T01:46:34;100706.88;;;-0.44;70.73
54592;BME280;40488;48.558;18.150;2023-02-28T01:49:09;100710.44;;;-0.41;70.65
54592;BME280;40488;48.558;18.150;2023-02-28T01:51:42;100705.56;;;-0.38;70.49
54592;BME280;40488;48.558;18.150;2023-02-28T01:54:22;100705.41;;;-0.41;70.28
54592;BME280;40488;48.558;18.150;2023-02-28T01:56:54;100709.72;;;-0.38;70.25
54592;BME280;40488;48.558;18.150;2023-02-28T01:59:29;100703.19;;;-0.36;70.07
54592;BME280;40488;48.558;18.150;2023-02-28T02:02:01;100705.00;;;-0.34;70.21
54592;BME280;40488;48.558;18.150;2023-02-28T02:04:38;100701.88;;;-0.30;70.27
54592;BME280;40488;48.558;18.150;2023-02-28T02:07:09;100705.34;;;-0.28;70.17
54592;BME280;40488;48.558;18.150;2023-02-28T02:09:44;100704.59;;;-0.27;70.21
54592;BME280;40488;48.558;18.150;2023-02-28T02:12:22;100703.59;;;-0.29;70.38
54592;BME280;40488;48.558;18.150;2023-02-28T02:15:02;100708.72;;;-0.27;70.34
54592;BME280;40488;48.558;18.150;2023-02-28T02:17:39;100715.44;;;-0.26;70.23
54592;BME280;40488;48.558;18.150;2023-02-28T02:20:30;100708.81;;;-0.26;70.23
54592;BME280;40488;48.558;18.150;2023-02-28T02:23:17;100711.31;;;-0.26;70.01
54592;BME280;40488;48.558;18.150;2023-02-28T02:25:56;100709.59;;;-0.27;69.97
54592;BME280;40488;48.558;18.150;2023-02-28T02:31:50;100713.56;;;-0.30;70.19
54592;BME280;40488;48.558;18.150;2023-02-28T02:34:38;100704.59;;;-0.27;70.22
54592;BME280;40488;48.558;18.150;2023-02-28T02:37:17;100701.09;;;-0.29;70.43
54592;BME280;40488;48.558;18.150;2023-02-28T02:39:53;100705.16;;;-0.31;70.37
54592;BME280;40488;48.558;18.150;2023-02-28T02:42:27;100702.84;;;-0.28;71.13
54592;BME280;40488;48.558;18.150;2023-02-28T02:45:01;100699.72;;;-0.24;70.75
54592;BME280;40488;48.558;18.150;2023-02-28T02:47:33;100699.72;;;-0.24;70.64
54592;BME280;40488;48.558;18.150;2023-02-28T02:50:10;100699.91;;;-0.21;70.57
54592;BME280;40488;48.558;18.150;2023-02-28T02:52:45;100700.84;;;-0.19;70.35
54592;BME280;40488;48.558;18.150;2023-02-28T02:55:18;100710.13;;;-0.18;70.60
54592;BME280;40488;48.558;18.150;2023-02-28T02:57:51;100701.81;;;-0.17;70.50
54592;BME280;40488;48.558;18.150;2023-02-28T03:00:26;100708.56;;;-0.16;70.60
54592;BME280;40488;48.558;18.150;2023-02-28T03:02:57;100709.50;;;-0.14;70.43
54592;BME280;40488;48.558;18.150;2023-02-28T03:05:32;100711.16;;;-0.14;70.51
54592;BME280;40488;48.558;18.150;2023-02-28T03:08:04;100705.09;;;-0.18;70.58
54592;BME280;40488;48.558;18.150;2023-02-28T03:10:37;100698.72;;;-0.13;70.53
54592;BME280;40488;48.558;18.150;2023-02-28T03:13:24;100708.91;;;-0.10;70.48
54592;BME280;40488;48.558;18.150;2023-02-28T03:16:20;100708.75;;;-0.13;70.96
54592;BME280;40488;48.558;18.150;2023-02-28T03:18:58;100706.13;;;-0.14;70.81
54592;BME280;40488;48.558;18.150;2023-02-28T03:21:37;100709.09;;;-0.07;70.82
54592;BME280;40488;48.558;18.150;2023-02-28T03:24:11;100705.81;;;-0.06;71.31
54592;BME280;40488;48.558;18.150;2023-02-28T03:26:50;100706.00;;;-0.03;71.08
54592;BME280;40488;48.558;18.150;2023-02-28T03:29:24;100707.63;;;-0.03;71.18
54592;BME280;40488;48.558;18.150;2023-02-28T03:31:59;100708.66;;;0.00;71.14
54592;BME280;40488;48.558;18.150;2023-02-28T03:34:34;100709.63;;;0.03;71.15
54592;BME280;40488;48.558;18.150;2023-02-28T03:37:10;100708.22;;;0.08;70.91
54592;BME280;40488;48.558;18.150;2023-02-28T03:39:42;100711.53;;;0.07;70.86
54592;BME280;40488;48.558;18.150;2023-02-28T03:42:15;100708.22;;;0.08;70.66
54592;BME280;40488;48.558;18.150;2023-02-28T03:44:51;100708.09;;;0.05;70.52
54592;BME280;40488;48.558;18.150;2023-02-28T03:47:25;100713.78;;;0.02;70.58
54592;BME280;40488;48.558;18.150;2023-02-28T03:50:00;100712.72;;;-0.02;70.68
54592;BME280;40488;48.558;18.150;2023-02-28T03:52:34;100715.84;;;-0.06;70.43
54592;BME280;40488;48.558;18.150;2023-02-28T03:55:08;100719.31;;;-0.04;70.54
54592;BME280;40488;48.558;18.150;2023-02-28T03:57:42;100720.00;;;-0.06;70.61
54592;BME280;40488;48.558;18.150;2023-02-28T04:00:16;100722.25;;;-0.11;70.64
54592;BME280;40488;48.558;18.150;2023-02-28T04:02:47;100724.38;;;-0.17;70.55
54592;BME280;40488;48.558;18.150;2023-02-28T04:05:21;100731.19;;;-0.29;70.59
54592;BME280;40488;48.558;18.150;2023-02-28T04:07:51;100730.13;;;-0.47;70.71
54592;BME280;40488;48.558;18.150;2023-02-28T04:10:20;100730.72;;;-0.51;71.27
54592;BME280;40488;48.558;18.150;2023-02-28T04:12:49;100738.38;;;-0.62;71.27
54592;BME280;40488;48.558;18.150;2023-02-28T04:15:18;100730.69;;;-0.79;71.33
54592;BME280;40488;48.558;18.150;2023-02-28T04:17:50;100730.59;;;-0.80;71.64
54592;BME280;40488;48.558;18.150;2023-02-28T04:20:19;100727.03;;;-0.84;71.84
54592;BME280;40488;48.558;18.150;2023-02-28T04:22:47;100735.81;;;-0.90;71.80
54592;BME280;40488;48.558;18.150;2023-02-28T04:25:18;100732.75;;;-0.99;72.17
54592;BME280;40488;48.558;18.150;2023-02-28T04:27:48;100744.31;;;-1.14;71.94
54592;BME280;40488;48.558;18.150;2023-02-28T04:30:17;100742.78;;;-1.25;72.71
54592;BME280;40488;48.558;18.150;2023-02-28T04:32:46;100738.34;;;-1.29;72.46
54592;BME280;40488;48.558;18.150;2023-02-28T04:35:15;100747.50;;;-1.30;72.96
54592;BME280;40488;48.558;18.150;2023-02-28T04:37:44;100748.56;;;-1.26;72.96
54592;BME280;40488;48.558;18.150;2023-02-28T04:40:13;100750.31;;;-1.25;73.25
54592;BME280;40488;48.558;18.150;2023-02-28T04:42:43;100752.69;;;-1.27;73.14
54592;BME280;40488;48.558;18.150;2023-02-28T04:45:12;100752.22;;;-1.34;73.41
54592;BME280;40488;48.558;18.150;2023-02-28T04:47:40;100750.00;;;-1.43;73.37
54592;BME280;40488;48.558;18.150;2023-02-28T04:50:10;100748.44;;;-1.41;73.79
54592;BME280;40488;48.558;18.150;2023-02-28T04:52:39;100754.53;;;-1.38;73.55
54592;BME280;40488;48.558;18.150;2023-02-28T04:55:08;100744.53;;;-1.38;73.91
54592;BME280;40488;48.558;18.150;2023-02-28T04:57:37;100731.34;;;-1.35;74.10
54592;BME280;40488;48.558;18.150;2023-02-28T05:00:09;100747.59;;;-1.28;74.39
54592;BME280;40488;48.558;18.150;2023-02-28T05:02:38;100742.00;;;-1.24;74.37
54592;BME280;40488;48.558;18.150;2023-02-28T05:05:07;100746.25;;;-1.23;74.36
54592;BME280;40488;48.558;18.150;2023-02-28T05:07:36;100740.78;;;-1.18;74.32
54592;BME280;40488;48.558;18.150;2023-02-28T05:10:06;100737.75;;;-1.12;74.76
54592;BME280;40488;48.558;18.150;2023-02-28T05:12:34;100741.63;;;-1.04;74.49
54592;BME280;40488;48.558;18.150;2023-02-28T05:15:04;100740.47;;;-0.96;74.72
54592;BME280;40488;48.558;18.150;2023-02-28T05:17:34;100740.63;;;-0.93;74.62
54592;BME280;40488;48.558;18.150;2023-02-28T05:20:03;100740.81;;;-0.90;74.79
54592;BME280;40488;48.558;18.150;2023-02-28T05:22:42;100744.97;;;-0.91;74.78
54592;BME280;40488;48.558;18.150;2023-02-28T05:25:16;100742.56;;;-0.89;75.00
54592;BME280;40488;48.558;18.150;2023-02-28T05:27:46;100739.66;;;-0.82;74.89
54592;BME280;40488;48.558;18.150;2023-02-28T05:30:15;100736.63;;;-0.77;74.86
54592;BME280;40488;48.558;18.150;2023-02-28T05:32:50;100750.44;;;-0.70;75.00
54592;BME280;40488;48.558;18.150;2023-02-28T05:35:19;100743.69;;;-0.71;74.82
54592;BME280;40488;48.558;18.150;2023-02-28T05:37:48;100759.66;;;-0.69;74.69
54592;BME280;40488;48.558;18.150;2023-02-28T05:40:17;100757.28;;;-0.68;75.15
54592;BME280;40488;48.558;18.150;2023-02-28T05:42:50;100771.91;;;-0.60;74.97
54592;BME280;40488;48.558;18.150;2023-02-28T05:45:19;100767.94;;;-0.57;75.07
54592;BME280;40488;48.558;18.150;2023-02-28T05:47:49;100770.81;;;-0.51;74.77
54592;BME280;40488;48.558;18.150;2023-02-28T05:50:21;100773.50;;;-0.48;74.62
54592;BME280;40488;48.558;18.150;2023-02-28T05:52:50;100781.31;;;-0.43;74.45
54592;BME280;40488;48.558;18.150;2023-02-28T05:55:19;100769.75;;;-0.41;73.82
54592;BME280;40488;48.558;18.150;2023-02-28T05:57:48;100780.44;;;-0.44;73.92
54592;BME280;40488;48.558;18.150;2023-02-28T06:00:17;100780.78;;;-0.38;73.85
54592;BME280;40488;48.558;18.150;2023-02-28T06:02:46;100781.00;;;-0.35;73.96
54592;BME280;40488;48.558;18.150;2023-02-28T06:05:18;100777.53;;;-0.37;73.95
54592;BME280;40488;48.558;18.150;2023-02-28T06:07:47;100784.25;;;-0.36;73.86
54592;BME280;40488;48.558;18.150;2023-02-28T06:10:16;100787.56;;;-0.37;73.74
54592;BME280;40488;48.558;18.150;2023-02-28T06:12:45;100790.25;;;-0.34;74.07
54592;BME280;40488;48.558;18.150;2023-02-28T06:15:14;100793.50;;;-0.22;73.96
54592;BME280;40488;48.558;18.150;2023-02-28T06:17:44;100793.84;;;-0.16;73.82
54592;BME280;40488;48.558;18.150;2023-02-28T06:20:13;100797.31;;;-0.14;73.61
54592;BME280;40488;48.558;18.150;2023-02-28T06:22:43;100798.38;;;-0.10;73.50
54592;BME280;40488;48.558;18.150;2023-02-28T06:25:12;100801.91;;;-0.07;73.67
54592;BME280;40488;48.558;18.150;2023-02-28T06:27:40;100802.53;;;-0.11;73.60
54592;BME280;40488;48.558;18.150;2023-02-28T06:30:11;100805.22;;;-0.08;73.65
54592;BME280;40488;48.558;18.150;2023-02-28T06:32:41;100811.00;;;-0.09;73.71
54592;BME280;40488;48.558;18.150;2023-02-28T06:35:10;100805.56;;;-0.02;73.88
54592;BME280;40488;48.558;18.150;2023-02-28T06:37:38;100809.03;;;0.00;73.63
54592;BME280;40488;48.558;18.150;2023-02-28T06:40:10;100806.91;;;0.07;73.59
54592;BME280;40488;48.558;18.150;2023-02-28T06:42:41;100807.25;;;0.13;73.46
54592;BME280;40488;48.558;18.150;2023-02-28T06:45:11;100807.63;;;0.19;73.38
54592;BME280;40488;48.558;18.150;2023-02-28T06:47:40;100806.25;;;0.24;73.05
54592;BME280;40488;48.558;18.150;2023-02-28T06:50:11;100808.91;;;0.27;73.11
54592;BME280;40488;48.558;18.150;2023-02-28T06:52:40;100801.97;;;0.23;72.75
54592;BME280;40488;48.558;18.150;2023-02-28T06:55:10;100804.50;;;0.23;72.18
54592;BME280;40488;48.558;18.150;2023-02-28T06:57:39;100811.78;;;0.33;72.15
54592;BME280;40488;48.558;18.150;2023-02-28T07:00:09;100813.63;;;0.50;71.87
54592;BME280;40488;48.558;18.150;2023-02-28T07:02:38;100808.94;;;0.56;71.19
54592;BME280;40488;48.558;18.150;2023-02-28T07:05:07;100806.09;;;0.50;70.68
54592;BME280;40488;48.558;18.150;2023-02-28T07:07:36;100808.50;;;0.48;70.43
54592;BME280;40488;48.558;18.150;2023-02-28T07:10:12;100809.53;;;0.52;69.99
54592;BME280;40488;48.558;18.150;2023-02-28T07:12:47;100810.06;;;0.61;69.83
54592;BME280;40488;48.558;18.150;2023-02-28T07:15:16;100806.69;;;0.60;69.64
54592;BME280;40488;48.558;18.150;2023-02-28T07:17:44;100807.97;;;0.54;69.63
54592;BME280;40488;48.558;18.150;2023-02-28T07:20:13;100806.78;;;0.62;68.59
54592;BME280;40488;48.558;18.150;2023-02-28T07:22:42;100808.69;;;0.66;68.43
54592;BME280;40488;48.558;18.150;2023-02-28T07:25:12;100806.94;;;0.65;68.23
54592;BME280;40488;48.558;18.150;2023-02-28T07:27:41;100812.31;;;0.71;68.29
54592;BME280;40488;48.558;18.150;2023-02-28T07:30:13;100817.09;;;0.81;68.00
54592;BME280;40488;48.558;18.150;2023-02-28T07:32:42;100819.75;;;0.84;67.26
54592;BME280;40488;48.558;18.150;2023-02-28T07:35:11;100826.69;;;0.88;67.10
54592;BME280;40488;48.558;18.150;2023-02-28T07:37:42;100822.41;;;1.02;67.36
54592;BME280;40488;48.558;18.150;2023-02-28T07:40:13;100806.56;;;1.03;67.49
54592;BME280;40488;48.558;18.150;2023-02-28T07:42:43;100818.00;;;1.12;67.30
54592;BME280;40488;48.558;18.150;2023-02-28T07:45:16;100816.94;;;1.09;67.11
54592;BME280;40488;48.558;18.150;2023-02-28T07:47:46;100822.84;;;1.09;67.26
54592;BME280;40488;48.558;18.150;2023-02-28T07:50:15;100827.88;;;1.09;67.04
54592;BME280;40488;48.558;18.150;2023-02-28T07:52:44;100818.00;;;1.12;66.91
54592;BME280;40488;48.558;18.150;2023-02-28T07:55:15;100817.66;;;1.06;66.88
54592;BME280;40488;48.558;18.150;2023-02-28T07:57:44;100817.66;;;1.06;66.97
54592;BME280;40488;48.558;18.150;2023-02-28T08:00:13;100823.47;;;1.05;67.17
54592;BME280;40488;48.558;18.150;2023-02-28T08:02:42;100823.34;;;1.18;67.23
54592;BME280;40488;48.558;18.150;2023-02-28T08:05:11;100832.00;;;1.23;67.17
54592;BME280;40488;48.558;18.150;2023-02-28T08:07:40;100830.09;;;1.34;67.43
54592;BME280;40488;48.558;18.150;2023-02-28T08:10:10;100831.09;;;1.38;67.64
54592;BME280;40488;48.558;18.150;2023-02-28T08:12:40;100839.75;;;1.43;66.82
54592;BME280;40488;48.558;18.150;2023-02-28T08:15:09;100838.06;;;1.42;66.87
54592;BME280;40488;48.558;18.150;2023-02-28T08:17:38;100834.91;;;1.46;66.39
54592;BME280;40488;48.558;18.150;2023-02-28T08:20:07;100829.34;;;1.51;65.96
54592;BME280;40488;48.558;18.150;2023-02-28T08:22:37;100838.19;;;1.45;65.25
54592;BME280;40488;48.558;18.150;2023-02-28T08:25:07;100824.84;;;1.46;64.76
54592;BME280;40488;48.558;18.150;2023-02-28T08:27:35;100831.22;;;1.55;64.88
54592;BME280;40488;48.558;18.150;2023-02-28T08:30:07;100845.25;;;1.66;64.73
54592;BME280;40488;48.558;18.150;2023-02-28T08:32:37;100841.72;;;1.79;64.39
54592;BME280;40488;48.558;18.150;2023-02-28T08:35:06;100836.34;;;1.73;64.32
54592;BME280;40488;48.558;18.150;2023-02-28T08:37:36;100838.44;;;1.80;64.44
54592;BME280;40488;48.558;18.150;2023-02-28T08:40:06;100839.97;;;1.78;64.30
54592;BME280;40488;48.558;18.150;2023-02-28T08:42:35;100836.84;;;1.82;64.18
54592;BME280;40488;48.558;18.150;2023-02-28T08:45:06;100841.03;;;1.81;63.07
54592;BME280;40488;48.558;18.150;2023-02-28T08:47:35;100841.25;;;1.70;62.78
54592;BME280;40488;48.558;18.150;2023-02-28T08:50:05;100836.44;;;1.58;62.53
54592;BME280;40488;48.558;18.150;2023-02-28T08:52:34;100839.66;;;1.72;62.53
54592;BME280;40488;48.558;18.150;2023-02-28T08:55:03;100835.06;;;1.79;62.38
54592;BME280;40488;48.558;18.150;2023-02-28T08:57:32;100840.78;;;1.93;62.41
54592;BME280;40488;48.558;18.150;2023-02-28T09:00:01;100833.63;;;2.00;62.52
54592;BME280;40488;48.558;18.150;2023-02-28T09:02:33;100809.00;;;1.95;62.06
54592;BME280;40488;48.558;18.150;2023-02-28T09:05:03;100838.25;;;2.09;62.36
54592;BME280;40488;48.558;18.150;2023-02-28T09:07:32;100832.75;;;2.16;61.44
54592;BME280;40488;48.558;18.150;2023-02-28T09:10:01;100831.81;;;2.14;61.73
54592;BME280;40488;48.558;18.150;2023-02-28T09:12:34;100830.56;;;2.22;61.97
54592;BME280;40488;48.558;18.150;2023-02-28T09:15:04;100837.47;;;2.26;61.49
54592;BME280;40488;48.558;18.150;2023-02-28T09:17:34;100837.47;;;2.26;61.73
54592;BME280;40488;48.558;18.150;2023-02-28T09:20:05;100834.91;;;2.25;61.12
54592;BME280;40488;48.558;18.150;2023-02-28T09:22:34;100828.34;;;2.28;60.38
54592;BME280;40488;48.558;18.150;2023-02-28T09:25:03;100829.16;;;2.27;60.46
54592;BME280;40488;48.558;18.150;2023-02-28T09:27:31;100832.78;;;2.32;59.79
54592;BME280;40488;48.558;18.150;2023-02-28T09:30:00;100833.50;;;2.47;59.62
54592;BME280;40488;48.558;18.150;2023-02-28T09:32:29;100838.06;;;2.54;58.91
54592;BME280;40488;48.558;18.150;2023-02-28T09:34:59;100842.44;;;2.75;59.13
54592;BME280;40488;48.558;18.150;2023-02-28T09:37:28;100843.81;;;2.86;57.83
54592;BME280;40488;48.558;18.150;2023-02-28T09:39:58;100846.72;;;2.93;57.48
54592;BME280;40488;48.558;18.150;2023-02-28T09:42:31;100842.84;;;3.00;57.28
54592;BME280;40488;48.558;18.150;2023-02-28T09:45:03;100844.78;;;2.88;57.58
54592;BME280;40488;48.558;18.150;2023-02-28T09:47:39;100850.59;;;2.87;57.01
54592;BME280;40488;48.558;18.150;2023-02-28T09:50:18;100847.03;;;2.99;57.56
54592;BME280;40488;48.558;18.150;2023-02-28T09:52:53;100851.75;;;2.93;57.03
54592;BME280;40488;48.558;18.150;2023-02-28T09:55:28;100842.25;;;2.88;56.70
54592;BME280;40488;48.558;18.150;2023-02-28T09:58:17;100843.47;;;2.96;57.29
54592;BME280;40488;48.558;18.150;2023-02-28T10:00:48;100848.16;;;3.06;56.65
54592;BME280;40488;48.558;18.150;2023-02-28T10:03:27;100841.69;;;3.11;57.32
54592;BME280;40488;48.558;18.150;2023-02-28T10:06:05;100834.91;;;3.10;56.52
54592;BME280;40488;48.558;18.150;2023-02-28T10:08:38;100840.25;;;3.16;55.87
54592;BME280;40488;48.558;18.150;2023-02-28T10:11:15;100845.06;;;3.29;56.32
54592;BME280;40488;48.558;18.150;2023-02-28T10:13:52;100847.66;;;3.48;56.85
54592;BME280;40488;48.558;18.150;2023-02-28T10:16:27;100835.72;;;3.63;56.15
54592;BME280;40488;48.558;18.150;2023-02-28T10:19:03;100835.78;;;3.65;54.89
54592;BME280;40488;48.558;18.150;2023-02-28T10:21:39;100830.75;;;3.65;55.03
54592;BME280;40488;48.558;18.150;2023-02-28T10:24:21;100826.31;;;3.59;54.49
54592;BME280;40488;48.558;18.150;2023-02-28T10:26:52;100833.00;;;3.59;53.98
54592;BME280;40488;48.558;18.150;2023-02-28T10:29:26;100823.94;;;3.62;53.93
54592;BME280;40488;48.558;18.150;2023-02-28T10:31:55;100826.72;;;3.87;53.28
54592;BME280;40488;48.558;18.150;2023-02-28T10:34:24;100827.31;;;4.20;54.10
54592;BME280;40488;48.558;18.150;2023-02-28T10:36:56;100826.31;;;4.36;54.03
54592;BME280;40488;48.558;18.150;2023-02-28T10:39:40;100819.63;;;4.36;52.56
54592;BME280;40488;48.558;18.150;2023-02-28T10:42:21;100812.84;;;4.56;53.07
54592;BME280;40488;48.558;18.150;2023-02-28T10:45:11;100812.69;;;4.72;52.89
54592;BME280;40488;48.558;18.150;2023-02-28T10:47:49;100805.19;;;4.54;52.65
54592;BME280;40488;48.558;18.150;2023-02-28T10:50:30;100809.03;;;4.45;51.36
54592;BME280;40488;48.558;18.150;2023-02-28T10:55:57;100803.22;;;4.68;51.37
54592;BME280;40488;48.558;18.150;2023-02-28T10:58:30;100791.00;;;4.99;51.00
54592;BME280;40488;48.558;18.150;2023-02-28T11:01:00;100788.16;;;5.12;50.80
54592;BME280;40488;48.558;18.150;2023-02-28T11:03:31;100785.63;;;5.57;50.93
54592;BME280;40488;48.558;18.150;2023-02-28T11:06:06;100786.63;;;5.84;50.64
54592;BME280;40488;48.558;18.150;2023-02-28T11:08:44;100782.28;;;5.80;49.94
54592;BME280;40488;48.558;18.150;2023-02-28T11:11:15;100786.00;;;5.43;49.64
54592;BME280;40488;48.558;18.150;2023-02-28T11:13:46;100783.09;;;5.57;49.19
54592;BME280;40488;48.558;18.150;2023-02-28T11:16:17;100777.34;;;5.38;49.29
54592;BME280;40488;48.558;18.150;2023-02-28T11:18:49;100775.06;;;5.45;48.85
54592;BME280;40488;48.558;18.150;2023-02-28T11:21:22;100741.91;;;5.38;47.92
54592;BME280;40488;48.558;18.150;2023-02-28T11:23:56;100767.44;;;5.67;47.87
54592;BME280;40488;48.558;18.150;2023-02-28T11:26:42;100755.00;;;5.73;47.15
54592;BME280;40488;48.558;18.150;2023-02-28T11:29:18;100755.31;;;5.82;47.39
54592;BME280;40488;48.558;18.150;2023-02-28T11:32:06;100752.13;;;5.86;47.05
54592;BME280;40488;48.558;18.150;2023-02-28T11:34:39;100741.34;;;5.91;46.83
54592;BME280;40488;48.558;18.150;2023-02-28T11:37:13;100745.78;;;5.97;46.54
54592;BME280;40488;48.558;18.150;2023-02-28T11:39:43;100744.25;;;6.02;46.13
54592;BME280;40488;48.558;18.150;2023-02-28T11:42:38;100734.53;;;6.14;45.81
54592;BME280;40488;48.558;18.150;2023-02-28T11:45:22;100726.34;;;6.21;45.35
54592;BME280;40488;48.558;18.150;2023-02-28T11:48:03;100722.81;;;6.69;45.63
54592;BME280;40488;48.558;18.150;2023-02-28T11:50:47;100719.50;;;6.72;45.36
54592;BME280;40488;48.558;18.150;2023-02-28T11:53:30;100718.06;;;6.52;45.05
54592;BME280;40488;48.558;18.150;2023-02-28T11:56:08;100721.38;;;6.51;45.26
54592;BME280;40488;48.558;18.150;2023-02-28T11:58:50;100714.97;;;6.89;45.32
54592;BME280;40488;48.558;18.150;2023-02-28T12:01:28;100713.72;;;7.03;44.75
54592;BME280;40488;48.558;18.150;2023-02-28T12:04:15;100711.81;;;6.96;44.67
54592;BME280;40488;48.558;18.150;2023-02-28T12:06:51;100705.88;;;6.95;44.77
54592;BME280;40488;48.558;18.150;2023-02-28T12:09:38;100707.22;;;7.40;44.95
54592;BME280;40488;48.558;18.150;2023-02-28T12:12:21;100702.38;;;7.20;44.21
54592;BME280;40488;48.558;18.150;2023-02-28T12:15:15;100705.84;;;7.22;44.80
54592;BME280;40488;48.558;18.150;2023-02-28T12:17:55;100706.53;;;7.46;43.89
54592;BME280;40488;48.558;18.150;2023-02-28T12:20:33;100695.06;;;7.60;44.40
54592;BME280;40488;48.558;18.150;2023-02-28T12:23:19;100666.81;;;7.20;43.86
54592;BME280;40488;48.558;18.150;2023-02-28T12:25:58;100691.78;;;7.05;44.00
54592;BME280;40488;48.558;18.150;2023-02-28T12:28:33;100685.16;;;7.10;43.95
54592;BME280;40488;48.558;18.150;2023-02-28T12:31:09;100687.22;;;6.93;44.45
54592;BME280;40488;48.558;18.150;2023-02-28T12:33:43;100681.91;;;7.14;44.59
54592;BME280;40488;48.558;18.150;2023-02-28T12:36:17;100675.22;;;7.47;44.69
54592;BME280;40488;48.558;18.150;2023-02-28T12:38:53;100676.47;;;7.61;43.92
54592;BME280;40488;48.558;18.150;2023-02-28T12:41:28;100674.16;;;7.70;43.85
54592;BME280;40488;48.558;18.150;2023-02-28T12:44:02;100664.41;;;7.85;44.25
54592;BME280;40488;48.558;18.150;2023-02-28T12:46:37;100661.47;;;8.36;44.40
54592;BME280;40488;48.558;18.150;2023-02-28T12:49:12;100659.50;;;8.60;44.93
54592;BME280;40488;48.558;18.150;2023-02-28T12:51:43;100652.06;;;8.32;42.92
54592;BME280;40488;48.558;18.150;2023-02-28T12:54:21;100650.53;;;8.05;43.26
54592;BME280;40488;48.558;18.150;2023-02-28T12:56:58;100646.31;;;8.06;43.22
54592;BME280;40488;48.558;18.150;2023-02-28T12:59:35;100650.94;;;8.56;44.29
54592;BME280;40488;48.558;18.150;2023-02-28T13:02:32;100655.81;;;8.85;43.41
54592;BME280;40488;48.558;18.150;2023-02-28T13:08:19;100641.47;;;8.51;43.50
54592;BME280;40488;48.558;18.150;2023-02-28T13:10:52;100648.63;;;9.06;44.27
54592;BME280;40488;48.558;18.150;2023-02-28T13:13:25;100640.91;;;9.01;42.94
54592;BME280;40488;48.558;18.150;2023-02-28T13:16:03;100641.84;;;8.66;42.23
54592;BME280;40488;48.558;18.150;2023-02-28T13:18:37;100640.31;;;8.74;43.02
54592;BME280;40488;48.558;18.150;2023-02-28T13:21:09;100628.69;;;8.85;42.46
54592;BME280;40488;48.558;18.150;2023-02-28T13:24:00;100610.44;;;8.67;42.65